Etusivu
METAR-TAF:

METAR-TAF

Lentoasemat :

Sharurah, Saudi-Arabia

Leveyspiiri: 17-28N, Pituuspiiri: 047-07E, korkeus merenpinnasta: 720 m

Tämänhetkinen sää

Tämä raportti tehtiin 25 minuuttia sitten, kello 22.00 UTC
tyyntä
Lämpötila 31°C
Kosteus 22%
Ilmanpaine 1003 hPa
Näkyvyys 10 km tai enemmän
Hajanaisia pilviä 3500 ft:n korkeudessa

METAR: OESH 052200Z 00000KT 9999 SCT035 31/07 Q1003 NOSIG

Aika: 01:25 (22:25 UTC)

Sääennuste

Tämä raportti tehtiin 11 tuntia ja 25 minuuttia sitten, kello 11.00 UTC
Ennuste voimassa 05. päivästä klo 12 UTC - 06. päivään klo 18 UTC
Tuuli 14 kn lännestä/luoteesta
Näkyvyys: 6000 m
Ajoittain
05. päivästä klo 12 UTC - 05. päivään klo 18 UTC
Näkyvyys: 3500 m
pölymyrsky
Tulossa
05. päivästä klo 20 UTC - 05. päivään klo 22 UTC
Tuuli 3 kn eri suunnista

TAF: OESH 051100Z 0512/0618 30014KT 6000 NSC TEMPO 0512/0518 3500 BLDU BECMG 0520/0522 VRB03KT

Säähavainnot ja -ennusteet yli 4000 lentoasemalta (METAR- ja TAF-raportit).

Käytössä olevat sääasemat on merkitty karttaan keltaisilla ja punaisilla pisteillä.

Aseta hiiri pisteen päälle nähdäksesi sääaseman nimen.

Klikkaa sitten nähdäksesi säähavainnot ja -ennusteet.

Kartan vaihtaminen: klikkaa mustalla rastilla varustettuja vihreitä pisteitä, niin voit zoomata sisään; viivalla varustettua vihreää pistettä, niin voit zoomata ulos tai vihreitä nuolia, niin pääset viereisille kartoille.


METAR-TAF: